createdAt,value
2022-09-24T00:01:33.343Z,6.70
2022-09-24T00:04:02.083Z,7.38
2022-09-24T00:06:29.554Z,6.72
2022-09-24T00:08:56.673Z,7.00
2022-09-24T00:11:24.514Z,6.85
2022-09-24T00:13:51.486Z,7.25
2022-09-24T00:16:18.732Z,7.32
2022-09-24T00:18:45.406Z,7.93
2022-09-24T00:21:15.656Z,7.75
2022-09-24T00:23:42.252Z,8.95
2022-09-24T00:26:32.019Z,8.65
2022-09-24T00:28:58.990Z,8.63
2022-09-24T00:31:25.930Z,7.18
2022-09-24T00:33:53.117Z,7.38
2022-09-24T00:36:20.410Z,6.88
2022-09-24T00:38:51.284Z,7.72
2022-09-24T00:41:19.982Z,8.10
2022-09-24T00:43:48.176Z,8.15
2022-09-24T00:46:22.151Z,8.10
2022-09-24T00:48:48.987Z,7.65
2022-09-24T00:51:17.530Z,8.23
2022-09-24T00:53:44.282Z,7.68
2022-09-24T00:56:11.451Z,8.40
2022-09-24T00:58:38.045Z,8.10
2022-09-24T01:01:05.984Z,8.10
2022-09-24T01:03:33.178Z,7.22
2022-09-24T01:05:59.772Z,7.93
2022-09-24T01:08:26.358Z,7.72
2022-09-24T01:11:13.941Z,8.27
2022-09-24T01:14:14.824Z,7.55
2022-09-24T01:16:53.543Z,6.25
2022-09-24T01:20:01.631Z,6.00
2022-09-24T01:22:52.606Z,6.38
2022-09-24T01:25:25.160Z,6.25
2022-09-24T01:28:13.346Z,6.93
2022-09-24T01:30:42.345Z,5.75
2022-09-24T01:33:13.170Z,6.78
2022-09-24T01:38:11.702Z,5.72
2022-09-24T01:40:38.389Z,6.10
2022-09-24T01:43:05.189Z,6.22
2022-09-24T01:45:32.133Z,6.10
2022-09-24T01:48:02.218Z,6.15
2022-09-24T01:50:37.313Z,6.35
2022-09-24T01:53:12.035Z,6.38
2022-09-24T01:55:42.151Z,6.22
2022-09-24T01:58:10.729Z,7.00
2022-09-24T02:00:42.517Z,6.15
2022-09-24T02:03:17.691Z,6.63
2022-09-24T02:05:54.411Z,6.82
2022-09-24T02:08:26.857Z,8.63
2022-09-24T02:11:05.538Z,7.15
2022-09-24T02:13:40.115Z,7.28
2022-09-24T02:16:08.590Z,6.43
2022-09-24T02:18:38.172Z,6.90
2022-09-24T02:21:07.718Z,7.00
2022-09-24T02:23:37.054Z,6.95
2022-09-24T02:26:03.921Z,7.07
2022-09-24T02:28:31.135Z,7.28
2022-09-24T02:31:04.523Z,6.93
2022-09-24T02:33:50.551Z,7.20
2022-09-24T02:36:17.431Z,7.40
2022-09-24T02:38:46.154Z,7.70
2022-09-24T02:41:13.444Z,7.25
2022-09-24T02:43:40.983Z,7.38
2022-09-24T02:46:10.768Z,8.10
2022-09-24T02:48:37.394Z,7.63
2022-09-24T02:51:05.236Z,7.75
2022-09-24T02:53:32.676Z,7.82
2022-09-24T02:56:00.793Z,7.72
2022-09-24T02:58:28.745Z,7.85
2022-09-24T03:00:56.368Z,7.65
2022-09-24T03:03:23.657Z,7.53
2022-09-24T03:05:52.969Z,8.40
2022-09-24T03:08:24.101Z,8.40
2022-09-24T03:10:51.112Z,8.63
2022-09-24T03:13:18.315Z,8.82
2022-09-24T03:15:48.193Z,8.90
2022-09-24T03:18:15.070Z,9.13
2022-09-24T03:20:41.789Z,8.65
2022-09-24T03:23:08.346Z,9.13
2022-09-24T03:25:34.983Z,9.40
2022-09-24T03:28:01.756Z,10.88
2022-09-24T03:30:46.798Z,10.32
2022-09-24T03:33:13.750Z,10.90
2022-09-24T03:35:40.378Z,11.32
2022-09-24T03:38:06.957Z,11.25
2022-09-24T03:40:33.825Z,10.45
2022-09-24T03:43:00.441Z,12.15
2022-09-24T03:45:26.985Z,12.10
2022-09-24T03:47:53.535Z,12.57
2022-09-24T03:50:20.119Z,12.40
2022-09-24T03:52:46.694Z,11.48
2022-09-24T03:55:13.269Z,11.02
2022-09-24T03:57:39.865Z,11.45
2022-09-24T04:00:06.898Z,11.13
2022-09-24T04:02:33.525Z,10.48
2022-09-24T04:05:00.130Z,11.10
2022-09-24T04:07:26.686Z,11.38
2022-09-24T04:09:53.281Z,12.90
2022-09-24T04:12:20.786Z,12.60
2022-09-24T04:14:47.353Z,12.60
2022-09-24T04:17:14.903Z,13.02
2022-09-24T04:19:41.482Z,14.10
2022-09-24T04:22:08.346Z,13.80
2022-09-24T04:24:34.922Z,13.20
2022-09-24T04:27:01.482Z,14.05
2022-09-24T04:29:28.037Z,13.48
2022-09-24T04:31:54.742Z,13.27
2022-09-24T04:34:21.342Z,13.63
2022-09-24T04:36:47.902Z,13.68
2022-09-24T04:39:15.507Z,13.52
2022-09-24T04:41:42.073Z,13.18
2022-09-24T04:44:08.718Z,13.65
2022-09-24T04:46:35.369Z,13.73
2022-09-24T04:49:02.068Z,14.00
2022-09-24T04:51:28.725Z,13.93
2022-09-24T04:53:55.321Z,14.85
2022-09-24T04:56:22.071Z,15.10
2022-09-24T04:58:51.588Z,15.38
2022-09-24T05:01:19.057Z,15.43
2022-09-24T05:03:45.670Z,15.20
2022-09-24T05:06:12.818Z,20.70
2022-09-24T05:08:39.408Z,16.40
2022-09-24T05:11:06.120Z,16.25
2022-09-24T05:13:32.685Z,17.58
2022-09-24T05:16:00.844Z,17.15
2022-09-24T05:18:27.894Z,17.90
2022-09-24T05:20:54.559Z,16.25
2022-09-24T05:23:21.116Z,16.25
2022-09-24T05:26:06.130Z,16.52
2022-09-24T05:28:33.099Z,16.52
2022-09-24T05:30:59.909Z,17.00
2022-09-24T05:33:26.863Z,16.67
2022-09-24T05:35:57.832Z,16.33
2022-09-24T05:38:24.488Z,17.35
2022-09-24T05:40:51.183Z,15.57
2022-09-24T05:43:19.428Z,14.77
2022-09-24T05:45:46.202Z,16.00
2022-09-24T05:48:12.864Z,15.82
2022-09-24T05:50:39.452Z,15.82
2022-09-24T05:53:06.182Z,15.32
2022-09-24T05:55:33.361Z,16.10
2022-09-24T05:58:07.154Z,15.77
2022-09-24T06:00:33.780Z,15.55
2022-09-24T06:03:09.125Z,16.45
2022-09-24T06:05:35.905Z,15.02
2022-09-24T06:08:03.491Z,15.55
2022-09-24T06:10:30.139Z,15.20
2022-09-24T06:12:56.707Z,14.82
2022-09-24T06:15:24.089Z,14.98
2022-09-24T06:17:53.630Z,14.27
2022-09-24T06:22:48.464Z,14.32
2022-09-24T06:25:15.041Z,14.68
2022-09-24T06:27:41.628Z,14.93
2022-09-24T06:30:08.850Z,16.15
2022-09-24T06:32:35.420Z,16.10
2022-09-24T06:35:02.022Z,15.73
2022-09-24T06:37:28.611Z,15.65
2022-09-24T06:39:55.198Z,15.05
2022-09-24T06:42:21.770Z,14.38
2022-09-24T06:44:48.353Z,13.20
2022-09-24T06:47:15.059Z,14.52
2022-09-24T06:49:41.634Z,11.05
2022-09-24T06:52:11.340Z,9.40
2022-09-24T06:54:38.781Z,8.23
2022-09-24T06:57:06.521Z,7.55
2022-09-24T06:59:33.088Z,6.70
2022-09-24T07:01:59.753Z,6.50
2022-09-24T07:04:26.459Z,6.40
2022-09-24T07:07:11.428Z,6.78
2022-09-24T07:09:40.678Z,6.03
2022-09-24T07:12:08.774Z,5.75
2022-09-24T07:14:35.362Z,6.53
2022-09-24T07:17:01.977Z,6.03
2022-09-24T07:19:28.578Z,5.97
2022-09-24T07:21:55.198Z,5.68
2022-09-24T07:24:21.741Z,5.10
2022-09-24T07:26:48.305Z,4.82
2022-09-24T07:29:14.865Z,4.68
2022-09-24T07:31:41.719Z,4.88
2022-09-24T07:34:09.100Z,4.35
2022-09-24T07:36:35.815Z,4.75
2022-09-24T07:39:02.414Z,3.95
2022-09-24T07:41:29.901Z,4.43
2022-09-24T07:43:56.445Z,4.20
2022-09-24T07:46:23.732Z,3.78
2022-09-24T07:48:58.547Z,4.15
2022-09-24T07:51:25.877Z,3.95
2022-09-24T07:53:52.462Z,4.00
2022-09-24T07:56:19.518Z,4.00
2022-09-24T07:58:50.082Z,4.40
2022-09-24T08:01:17.687Z,4.20
2022-09-24T08:03:44.972Z,4.38
2022-09-24T08:06:11.966Z,4.13
2022-09-24T08:08:43.359Z,3.78
2022-09-24T08:11:12.003Z,3.97
2022-09-24T08:13:38.698Z,4.00
2022-09-24T08:16:05.969Z,4.30
2022-09-24T08:18:32.824Z,4.63
2022-09-24T08:21:03.370Z,4.28
2022-09-24T08:23:31.165Z,4.38
2022-09-24T08:25:57.753Z,4.50
2022-09-24T08:28:24.293Z,4.20
2022-09-24T08:30:50.883Z,5.18
2022-09-24T08:33:17.498Z,4.63
2022-09-24T08:35:44.063Z,4.93
2022-09-24T08:38:10.617Z,4.70
2022-09-24T08:40:45.950Z,5.60
2022-09-24T08:43:29.158Z,5.32
2022-09-24T08:46:16.253Z,5.43
2022-09-24T08:48:45.648Z,5.93
2022-09-24T08:51:14.182Z,6.20
2022-09-24T08:53:51.097Z,6.22
2022-09-24T08:56:20.621Z,5.70
2022-09-24T08:58:51.296Z,5.60
2022-09-24T09:01:23.584Z,6.10
2022-09-24T09:03:53.215Z,6.38
2022-09-24T09:06:41.590Z,6.00
2022-09-24T09:09:16.348Z,6.68
2022-09-24T09:11:48.174Z,6.80
2022-09-24T09:14:19.781Z,6.15
2022-09-24T09:17:14.471Z,7.57
2022-09-24T09:19:41.018Z,6.85
2022-09-24T09:22:13.225Z,6.78
2022-09-24T09:24:50.310Z,6.43
2022-09-24T09:27:17.703Z,5.90
2022-09-24T09:30:06.295Z,6.18
2022-09-24T09:32:34.681Z,6.05
2022-09-24T09:35:14.062Z,5.78
2022-09-24T09:37:52.413Z,5.43
2022-09-24T09:40:31.575Z,5.30
2022-09-24T09:43:02.958Z,5.37
2022-09-24T09:46:14.373Z,5.40
2022-09-24T09:48:48.460Z,5.15
2022-09-24T09:51:22.288Z,4.90
2022-09-24T09:54:02.360Z,5.43
2022-09-24T09:56:35.022Z,5.97
2022-09-24T09:59:03.174Z,5.05
2022-09-24T10:01:36.857Z,5.20
2022-09-24T10:04:04.802Z,5.97
2022-09-24T10:06:35.550Z,4.72
2022-09-24T10:09:12.878Z,4.85
2022-09-24T10:11:39.714Z,5.57
2022-09-24T10:14:09.184Z,4.70
2022-09-24T10:16:39.208Z,5.47
2022-09-24T10:19:14.482Z,5.20
2022-09-24T10:21:41.055Z,4.82
2022-09-24T10:24:16.377Z,5.20
2022-09-24T10:26:45.448Z,4.63
2022-09-24T10:29:51.660Z,5.28
2022-09-24T10:32:22.442Z,5.25
2022-09-24T10:35:05.762Z,5.05
2022-09-24T10:37:32.323Z,5.20
2022-09-24T10:40:00.183Z,4.95
2022-09-24T10:42:28.751Z,5.38
2022-09-24T10:44:55.963Z,4.85
2022-09-24T10:47:35.195Z,4.78
2022-09-24T10:50:16.846Z,4.47
2022-09-24T10:52:44.859Z,4.88
2022-09-24T10:55:42.378Z,4.60
2022-09-24T10:58:33.917Z,4.55
2022-09-24T11:01:22.271Z,4.60
2022-09-24T11:04:19.106Z,4.43
2022-09-24T11:07:01.101Z,3.95
2022-09-24T11:09:54.877Z,4.50
2022-09-24T11:12:41.700Z,4.60
2022-09-24T11:15:19.986Z,5.00
2022-09-24T11:17:56.842Z,5.28
2022-09-24T11:20:39.402Z,4.80
2022-09-24T11:23:32.202Z,4.95
2022-09-24T11:26:27.297Z,4.95
2022-09-24T11:29:08.982Z,4.30
2022-09-24T11:31:44.270Z,5.30
2022-09-24T11:34:36.828Z,4.90
2022-09-24T11:37:13.121Z,4.30
2022-09-24T11:39:56.479Z,4.40
2022-09-24T11:42:28.893Z,4.47
2022-09-24T11:45:18.053Z,4.35
2022-09-24T11:47:53.188Z,3.60
2022-09-24T11:50:56.113Z,3.60
2022-09-24T11:53:34.954Z,3.58
2022-09-24T11:56:29.709Z,3.58
2022-09-24T11:59:02.601Z,3.33
2022-09-24T12:01:32.396Z,3.65
2022-09-24T12:04:05.888Z,2.85
2022-09-24T12:06:35.676Z,3.22
2022-09-24T12:09:22.376Z,2.90
2022-09-24T12:11:51.702Z,2.75
2022-09-24T12:14:26.523Z,2.70
2022-09-24T12:17:01.487Z,3.60
2022-09-24T12:19:53.856Z,3.22
2022-09-24T12:22:20.410Z,3.03
2022-09-24T12:24:51.720Z,2.42
2022-09-24T12:27:25.204Z,2.00
2022-09-24T12:30:24.424Z,2.15
2022-09-24T12:33:00.817Z,2.60
2022-09-24T12:35:30.088Z,2.53
2022-09-24T12:38:04.110Z,2.10
2022-09-24T12:40:49.402Z,1.95
2022-09-24T12:43:33.005Z,2.30
2022-09-24T12:46:03.831Z,2.40
2022-09-24T12:48:32.081Z,2.03
2022-09-24T12:51:03.442Z,2.40
2022-09-24T12:53:36.942Z,2.28
2022-09-24T12:56:04.354Z,1.65
2022-09-24T12:58:40.987Z,1.10
2022-09-24T13:01:20.647Z,1.63
2022-09-24T13:04:00.406Z,1.50
2022-09-24T13:06:35.523Z,1.85
2022-09-24T13:09:03.136Z,1.60
2022-09-24T13:11:31.796Z,2.40
2022-09-24T13:14:12.897Z,2.85
2022-09-24T13:16:40.859Z,2.55
2022-09-24T13:19:38.054Z,2.45
2022-09-24T13:22:04.675Z,2.22
2022-09-24T13:24:46.709Z,2.08
2022-09-24T13:27:31.186Z,2.30
2022-09-24T13:30:08.781Z,2.15
2022-09-24T13:32:51.026Z,2.00
2022-09-24T13:35:24.225Z,2.40
2022-09-24T13:38:06.835Z,2.25
2022-09-24T13:40:37.087Z,1.98
2022-09-24T13:43:36.274Z,1.92
2022-09-24T13:46:05.657Z,2.15
2022-09-24T13:48:38.210Z,2.55
2022-09-24T13:51:05.255Z,2.30
2022-09-24T13:54:02.400Z,2.05
2022-09-24T13:56:29.007Z,2.15
2022-09-24T13:59:24.973Z,2.25
2022-09-24T14:01:51.672Z,2.25
2022-09-24T14:04:21.820Z,2.33
2022-09-24T14:09:29.759Z,2.60
2022-09-24T14:11:58.509Z,2.38
2022-09-24T14:14:27.739Z,2.78
2022-09-24T14:16:57.520Z,4.53
2022-09-24T14:19:24.201Z,2.20
2022-09-24T14:21:53.315Z,1.88
2022-09-24T14:24:25.887Z,2.27
2022-09-24T14:27:13.409Z,2.50
2022-09-24T14:30:08.950Z,2.60
2022-09-24T14:32:37.021Z,2.15
2022-09-24T14:35:29.973Z,2.22
2022-09-24T14:38:16.549Z,2.13
2022-09-24T14:41:25.057Z,2.30
2022-09-24T14:44:04.670Z,2.63
2022-09-24T14:46:32.792Z,2.25
2022-09-24T14:49:07.050Z,2.13
2022-09-24T14:51:33.904Z,2.38
2022-09-24T14:54:25.129Z,2.63
2022-09-24T14:56:52.383Z,3.22
2022-09-24T14:59:30.822Z,3.28
2022-09-24T15:02:26.361Z,3.08
2022-09-24T15:05:01.910Z,2.65
2022-09-24T15:07:31.577Z,3.00
2022-09-24T15:09:59.498Z,3.90
2022-09-24T15:12:30.989Z,3.22
2022-09-24T15:14:59.244Z,3.70
2022-09-24T15:17:30.568Z,3.72
2022-09-24T15:19:57.922Z,3.40
2022-09-24T15:22:26.803Z,3.45
2022-09-24T15:25:00.320Z,3.22
2022-09-24T15:27:38.299Z,3.30
2022-09-24T15:30:07.072Z,3.35
2022-09-24T15:32:35.818Z,3.00
2022-09-24T15:35:07.446Z,3.00
2022-09-24T15:37:34.220Z,2.67
2022-09-24T15:40:09.254Z,2.60
2022-09-24T15:42:35.863Z,2.50
2022-09-24T15:45:02.463Z,2.53
2022-09-24T15:47:29.122Z,2.30
2022-09-24T15:49:55.827Z,2.67
2022-09-24T15:52:24.677Z,2.58
2022-09-24T15:54:51.995Z,2.92
2022-09-24T15:57:18.610Z,2.45
2022-09-24T15:59:45.185Z,2.65
2022-09-24T16:02:17.273Z,2.60
2022-09-24T16:04:44.272Z,2.38
2022-09-24T16:07:10.832Z,2.60
2022-09-24T16:09:37.411Z,2.00
2022-09-24T16:12:04.450Z,2.50
2022-09-24T16:14:31.384Z,2.90
2022-09-24T16:16:58.026Z,2.20
2022-09-24T16:19:24.641Z,2.47
2022-09-24T16:21:52.297Z,2.40
2022-09-24T16:24:18.981Z,2.78
2022-09-24T16:26:45.556Z,2.67
2022-09-24T16:29:12.195Z,2.60
2022-09-24T16:31:38.930Z,2.60
2022-09-24T16:34:05.557Z,3.30
2022-09-24T16:36:32.124Z,2.65
2022-09-24T16:38:58.734Z,2.50
2022-09-24T16:41:25.323Z,2.65
2022-09-24T16:43:55.910Z,2.40
2022-09-24T16:46:23.077Z,2.65
2022-09-24T16:48:49.892Z,3.10
2022-09-24T16:51:17.249Z,2.88
2022-09-24T16:53:48.910Z,2.70
2022-09-24T16:56:16.595Z,2.72
2022-09-24T16:58:44.311Z,2.80
2022-09-24T17:01:15.016Z,3.30
2022-09-24T17:03:41.767Z,3.83
2022-09-24T17:06:08.448Z,3.10
2022-09-24T17:08:54.662Z,3.60
2022-09-24T17:11:21.800Z,3.30
2022-09-24T17:13:48.416Z,3.50
2022-09-24T17:16:15.392Z,3.42
2022-09-24T17:18:42.043Z,3.50
2022-09-24T17:21:11.038Z,3.90
2022-09-24T17:23:38.033Z,3.90
2022-09-24T17:26:06.008Z,5.00
2022-09-24T17:28:33.711Z,4.57
2022-09-24T17:31:00.345Z,3.90
2022-09-24T17:33:43.020Z,3.00
2022-09-24T17:36:12.092Z,3.15
2022-09-24T17:38:38.764Z,3.65
2022-09-24T17:41:09.924Z,4.55
2022-09-24T17:43:36.716Z,3.85
2022-09-24T17:46:22.422Z,3.67
2022-09-24T17:48:51.260Z,3.38
2022-09-24T17:51:22.647Z,3.22
2022-09-24T17:53:53.158Z,3.17
2022-09-24T17:56:21.034Z,3.15
2022-09-24T17:58:47.661Z,2.75
2022-09-24T18:01:17.508Z,3.10
2022-09-24T18:03:44.727Z,3.08
2022-09-24T18:06:12.929Z,2.55
2022-09-24T18:08:40.266Z,2.58
2022-09-24T18:11:09.200Z,3.30
2022-09-24T18:13:35.792Z,4.18
2022-09-24T18:16:07.230Z,3.47
2022-09-24T18:18:33.969Z,2.78
2022-09-24T18:21:05.186Z,2.75
2022-09-24T18:23:32.023Z,2.80
2022-09-24T18:26:13.628Z,6.53
2022-09-24T18:28:48.420Z,4.47
2022-09-24T18:31:15.181Z,2.78
2022-09-24T18:33:42.823Z,3.10
2022-09-24T18:36:11.218Z,2.70
2022-09-24T18:38:37.862Z,2.72
2022-09-24T18:41:09.334Z,3.60
2022-09-24T18:43:36.198Z,4.70
2022-09-24T18:46:06.016Z,5.90
2022-09-24T18:48:32.925Z,5.35
2022-09-24T18:50:59.808Z,5.32
2022-09-24T18:53:26.761Z,5.63
2022-09-24T18:55:53.374Z,5.20
2022-09-24T18:58:20.085Z,6.22
2022-09-24T19:00:54.753Z,7.18
2022-09-24T19:03:21.819Z,7.85
2022-09-24T19:05:51.477Z,8.35
2022-09-24T19:08:20.081Z,9.53
2022-09-24T19:10:52.365Z,9.13
2022-09-24T19:13:25.512Z,10.32
2022-09-24T19:15:55.584Z,10.88
2022-09-24T19:18:22.994Z,11.02
2022-09-24T19:20:49.734Z,11.57
2022-09-24T19:23:17.009Z,12.77
2022-09-24T19:25:43.694Z,12.88
2022-09-24T19:28:11.378Z,13.77
2022-09-24T19:30:42.889Z,13.73
2022-09-24T19:33:15.641Z,13.30
2022-09-24T19:35:45.663Z,13.80
2022-09-24T19:38:16.501Z,14.52
2022-09-24T19:40:43.261Z,13.77
2022-09-24T19:43:09.885Z,14.82
2022-09-24T19:45:36.985Z,15.82
2022-09-24T19:48:03.650Z,16.55
2022-09-24T19:50:34.211Z,15.40
2022-09-24T19:55:28.735Z,14.35
2022-09-24T19:57:56.275Z,14.30
2022-09-24T20:00:24.914Z,15.30
2022-09-24T20:02:52.294Z,15.23
2022-09-24T20:05:18.894Z,15.85
2022-09-24T20:07:46.398Z,15.43
2022-09-24T20:10:13.018Z,15.70
2022-09-24T20:12:42.610Z,15.68
2022-09-24T20:15:10.221Z,15.02
2022-09-24T20:17:36.790Z,16.85
2022-09-24T20:20:03.994Z,16.27
2022-09-24T20:22:33.187Z,16.00
2022-09-24T20:24:59.757Z,17.15
2022-09-24T20:27:44.763Z,19.15
2022-09-24T20:30:11.413Z,19.75
2022-09-24T20:32:37.975Z,22.35
2022-09-24T20:35:04.878Z,23.40
2022-09-24T20:37:31.459Z,23.20
2022-09-24T20:39:58.013Z,24.27
2022-09-24T20:42:24.729Z,23.73
2022-09-24T20:44:52.523Z,25.63
2022-09-24T20:47:19.081Z,26.45
2022-09-24T20:49:45.651Z,27.83
2022-09-24T20:52:12.206Z,27.10
2022-09-24T20:54:38.763Z,26.55
2022-09-24T20:57:05.351Z,26.08
2022-09-24T20:59:31.918Z,25.42
2022-09-24T21:01:58.568Z,25.48
2022-09-24T21:04:25.689Z,26.38
2022-09-24T21:06:52.408Z,27.10
2022-09-24T21:09:19.055Z,26.50
2022-09-24T21:11:45.629Z,27.83
2022-09-24T21:14:12.412Z,29.13
2022-09-24T21:16:39.030Z,29.40
2022-09-24T21:19:07.718Z,30.25
2022-09-24T21:21:38.279Z,30.02
2022-09-24T21:26:34.396Z,27.98
2022-09-24T21:29:08.095Z,31.17
2022-09-24T21:31:35.482Z,32.97
2022-09-24T21:34:02.118Z,35.50
2022-09-24T21:36:35.237Z,35.08
2022-09-24T21:39:12.701Z,34.78
2022-09-24T21:41:39.382Z,34.78
2022-09-24T21:44:06.617Z,35.45
2022-09-24T21:46:33.383Z,35.30
2022-09-24T21:49:00.756Z,35.05
2022-09-24T21:51:28.591Z,34.97
2022-09-24T21:53:57.527Z,34.63
2022-09-24T21:56:24.858Z,34.78
2022-09-24T21:58:52.270Z,34.67
2022-09-24T22:01:25.897Z,32.38
2022-09-24T22:03:56.960Z,33.50
2022-09-24T22:06:27.082Z,34.65
2022-09-24T22:08:55.941Z,39.20
2022-09-24T22:11:24.647Z,45.50
2022-09-24T22:13:51.723Z,41.40
2022-09-24T22:16:18.381Z,39.03
2022-09-24T22:18:44.989Z,38.72
2022-09-24T22:21:13.068Z,33.35
2022-09-24T22:23:40.241Z,32.75
2022-09-24T22:26:07.668Z,31.48
2022-09-24T22:28:34.273Z,31.65
2022-09-24T22:31:04.520Z,30.77
2022-09-24T22:33:50.020Z,30.55
2022-09-24T22:36:16.926Z,31.83
2022-09-24T22:38:43.638Z,31.55
2022-09-24T22:41:11.998Z,32.85
2022-09-24T22:43:39.130Z,33.33
2022-09-24T22:46:10.454Z,32.95
2022-09-24T22:48:37.242Z,33.45
2022-09-24T22:51:04.353Z,32.33
2022-09-24T22:53:36.758Z,32.67
2022-09-24T22:56:08.214Z,35.67
2022-09-24T22:58:35.226Z,38.90
2022-09-24T23:01:07.529Z,38.33
2022-09-24T23:03:35.039Z,34.25
2022-09-24T23:06:01.995Z,33.17
2022-09-24T23:08:33.170Z,31.88
2022-09-24T23:11:07.089Z,33.10
2022-09-24T23:13:33.749Z,33.10
2022-09-24T23:16:13.962Z,30.75
2022-09-24T23:18:41.353Z,29.25
2022-09-24T23:21:09.008Z,30.13
2022-09-24T23:23:35.941Z,31.05
2022-09-24T23:26:16.508Z,30.25
2022-09-24T23:28:43.886Z,31.50
2022-09-24T23:31:11.813Z,33.78
2022-09-24T23:33:41.746Z,34.78
2022-09-24T23:36:10.283Z,36.78
2022-09-24T23:38:36.946Z,37.20
2022-09-24T23:41:05.064Z,37.20
2022-09-24T23:43:31.724Z,38.88
2022-09-24T23:45:58.421Z,39.65
2022-09-24T23:48:25.119Z,38.38
2022-09-24T23:50:51.721Z,38.50
2022-09-24T23:53:24.582Z,40.13
2022-09-24T23:55:51.530Z,40.13
2022-09-24T23:58:22.534Z,42.17
